createdAt,value
2023-02-03T00:00:27.893Z,4.55
2023-02-03T00:02:55.186Z,5.10
2023-02-03T00:05:21.809Z,3.65
2023-02-03T00:07:48.225Z,3.38
2023-02-03T00:10:14.863Z,4.15
2023-02-03T00:12:41.652Z,4.07
2023-02-03T00:15:08.543Z,4.22
2023-02-03T00:17:35.008Z,4.10
2023-02-03T00:20:01.590Z,4.35
2023-02-03T00:22:28.146Z,3.53
2023-02-03T00:24:54.632Z,4.95
2023-02-03T00:27:21.118Z,4.50
2023-02-03T00:29:47.760Z,5.82
2023-02-03T00:32:14.398Z,4.22
2023-02-03T00:34:41.395Z,4.07
2023-02-03T00:37:08.354Z,3.75
2023-02-03T00:39:35.497Z,4.72
2023-02-03T00:42:01.984Z,3.55
2023-02-03T00:44:28.499Z,4.25
2023-02-03T00:46:55.082Z,3.88
2023-02-03T00:49:21.522Z,4.63
2023-02-03T00:51:48.013Z,4.90
2023-02-03T00:54:14.918Z,4.75
2023-02-03T00:56:41.451Z,3.58
2023-02-03T00:59:08.051Z,4.20
2023-02-03T01:01:35.184Z,5.35
2023-02-03T01:04:02.287Z,4.85
2023-02-03T01:06:28.754Z,4.68
2023-02-03T01:08:55.958Z,5.07
2023-02-03T01:11:22.456Z,5.25
2023-02-03T01:13:49.389Z,6.30
2023-02-03T01:16:15.939Z,4.80
2023-02-03T01:18:42.840Z,6.45
2023-02-03T01:21:09.286Z,3.65
2023-02-03T01:23:35.810Z,4.05
2023-02-03T01:26:02.346Z,4.50
2023-02-03T01:28:28.804Z,5.68
2023-02-03T01:30:55.474Z,4.57
2023-02-03T01:33:22.140Z,5.18
2023-02-03T01:35:48.688Z,4.35
2023-02-03T01:38:16.171Z,4.85
2023-02-03T01:40:42.980Z,5.78
2023-02-03T01:43:09.940Z,3.97
2023-02-03T01:45:36.472Z,5.68
2023-02-03T01:48:03.213Z,4.70
2023-02-03T01:50:29.756Z,4.25
2023-02-03T01:52:56.298Z,4.88
2023-02-03T01:55:22.828Z,3.72
2023-02-03T01:57:49.766Z,5.25
2023-02-03T02:00:16.230Z,5.78
2023-02-03T02:02:42.772Z,5.25
2023-02-03T02:05:10.090Z,6.35
2023-02-03T02:07:36.785Z,5.60
2023-02-03T02:10:03.368Z,4.95
2023-02-03T02:12:30.525Z,4.60
2023-02-03T02:14:57.075Z,5.30
2023-02-03T02:17:23.885Z,4.45
2023-02-03T02:19:50.368Z,5.70
2023-02-03T02:22:16.827Z,5.75
2023-02-03T02:24:43.432Z,5.05
2023-02-03T02:27:09.891Z,5.72
2023-02-03T02:29:36.428Z,5.65
2023-02-03T02:32:02.999Z,6.20
2023-02-03T02:34:29.447Z,4.72
2023-02-03T02:36:55.959Z,5.32
2023-02-03T02:39:22.503Z,6.97
2023-02-03T02:41:49.156Z,4.47
2023-02-03T02:44:15.829Z,4.10
2023-02-03T02:46:42.328Z,5.53
2023-02-03T02:49:08.732Z,6.35
2023-02-03T02:51:35.265Z,5.18
2023-02-03T02:54:01.766Z,6.15
2023-02-03T02:56:28.356Z,4.50
2023-02-03T02:58:54.713Z,5.43
2023-02-03T03:01:21.377Z,6.05
2023-02-03T03:03:48.219Z,5.85
2023-02-03T03:06:15.085Z,4.10
2023-02-03T03:08:41.609Z,3.92
2023-02-03T03:11:08.119Z,5.63
2023-02-03T03:13:34.679Z,4.82
2023-02-03T03:16:01.276Z,4.25
2023-02-03T03:18:28.028Z,5.63
2023-02-03T03:20:54.597Z,5.28
2023-02-03T03:23:21.153Z,5.75
2023-02-03T03:25:47.892Z,4.55
2023-02-03T03:28:15.067Z,6.38
2023-02-03T03:30:41.833Z,4.43
2023-02-03T03:33:08.382Z,4.55
2023-02-03T03:35:35.345Z,4.15
2023-02-03T03:38:02.292Z,4.93
2023-02-03T03:40:29.003Z,5.22
2023-02-03T03:42:55.485Z,4.80
2023-02-03T03:45:21.972Z,5.10
2023-02-03T03:47:48.623Z,5.25
2023-02-03T03:50:15.348Z,4.47
2023-02-03T03:52:41.741Z,4.97
2023-02-03T03:55:08.180Z,5.53
2023-02-03T03:57:34.647Z,4.80
2023-02-03T04:00:01.031Z,5.20
2023-02-03T04:02:28.078Z,4.35
2023-02-03T04:04:54.546Z,4.63
2023-02-03T04:07:20.965Z,5.05
2023-02-03T04:09:47.396Z,4.95
2023-02-03T04:12:13.736Z,3.85
2023-02-03T04:14:40.017Z,3.58
2023-02-03T04:17:06.553Z,3.97
2023-02-03T04:19:33.707Z,4.07
2023-02-03T04:22:00.301Z,6.00
2023-02-03T04:24:27.321Z,4.97
2023-02-03T04:26:53.692Z,4.43
2023-02-03T04:29:20.130Z,4.47
2023-02-03T04:31:46.670Z,4.53
2023-02-03T04:34:13.121Z,4.53
2023-02-03T04:36:39.627Z,6.07
2023-02-03T04:39:06.269Z,4.50
2023-02-03T04:41:32.908Z,4.03
2023-02-03T04:43:59.336Z,4.40
2023-02-03T04:46:25.787Z,5.00
2023-02-03T04:48:52.330Z,3.75
2023-02-03T04:51:18.721Z,3.38
2023-02-03T04:53:45.468Z,4.47
2023-02-03T04:56:12.899Z,4.82
2023-02-03T04:58:39.260Z,4.20
2023-02-03T05:01:05.794Z,3.55
2023-02-03T05:03:32.643Z,4.38
2023-02-03T05:05:59.073Z,3.85
2023-02-03T05:08:25.727Z,4.05
2023-02-03T05:10:52.158Z,3.75
2023-02-03T05:13:18.595Z,3.53
2023-02-03T05:15:45.774Z,3.75
2023-02-03T05:18:12.259Z,3.72
2023-02-03T05:20:38.621Z,3.53
2023-02-03T05:23:05.024Z,3.05
2023-02-03T05:25:31.794Z,4.13
2023-02-03T05:27:58.393Z,3.63
2023-02-03T05:30:24.876Z,3.70
2023-02-03T05:32:51.337Z,3.63
2023-02-03T05:35:17.699Z,2.95
2023-02-03T05:37:44.205Z,3.85
2023-02-03T05:40:11.267Z,3.55
2023-02-03T05:42:37.699Z,4.38
2023-02-03T05:45:04.119Z,5.15
2023-02-03T05:47:30.888Z,3.22
2023-02-03T05:49:57.251Z,3.38
2023-02-03T05:52:23.704Z,3.83
2023-02-03T05:54:50.021Z,3.92
2023-02-03T05:57:17.009Z,3.45
2023-02-03T05:59:43.340Z,3.75
2023-02-03T06:02:09.716Z,3.10
2023-02-03T06:04:36.155Z,3.50
2023-02-03T06:07:02.563Z,3.85
2023-02-03T06:09:29.100Z,3.65
2023-02-03T06:11:55.485Z,3.75
2023-02-03T06:14:21.944Z,3.50
2023-02-03T06:16:48.402Z,3.10
2023-02-03T06:19:16.348Z,3.50
2023-02-03T06:21:43.115Z,3.53
2023-02-03T06:24:09.669Z,3.85
2023-02-03T06:26:36.012Z,3.92
2023-02-03T06:29:02.580Z,3.80
2023-02-03T06:31:29.102Z,3.90
2023-02-03T06:33:55.639Z,4.07
2023-02-03T06:36:22.091Z,3.35
2023-02-03T06:38:48.561Z,3.75
2023-02-03T06:41:14.884Z,5.28
2023-02-03T06:43:41.458Z,3.85
2023-02-03T06:46:08.343Z,3.50
2023-02-03T06:48:34.787Z,4.28
2023-02-03T06:51:01.343Z,5.10
2023-02-03T06:53:27.889Z,4.78
2023-02-03T06:55:54.371Z,5.45
2023-02-03T06:58:21.065Z,5.70
2023-02-03T07:00:47.407Z,6.55
2023-02-03T07:03:13.832Z,5.13
2023-02-03T07:05:40.559Z,5.30
2023-02-03T07:08:07.092Z,6.72
2023-02-03T07:10:33.422Z,6.43
2023-02-03T07:13:00.113Z,9.13
2023-02-03T07:15:26.541Z,7.07
2023-02-03T07:17:53.299Z,6.72
2023-02-03T07:20:19.932Z,8.15
2023-02-03T07:22:46.317Z,8.77
2023-02-03T07:25:12.692Z,7.95
2023-02-03T07:27:39.492Z,10.18
2023-02-03T07:30:06.470Z,7.10
2023-02-03T07:32:33.954Z,8.60
2023-02-03T07:35:00.414Z,10.63
2023-02-03T07:37:27.092Z,9.38
2023-02-03T07:39:53.477Z,10.70
2023-02-03T07:42:19.932Z,9.18
2023-02-03T07:44:46.529Z,11.05
2023-02-03T07:47:12.945Z,9.98
2023-02-03T07:49:39.633Z,11.88
2023-02-03T07:52:06.059Z,11.60
2023-02-03T07:54:32.442Z,12.07
2023-02-03T07:56:58.843Z,11.88
2023-02-03T07:59:25.381Z,13.40
2023-02-03T08:01:51.930Z,14.55
2023-02-03T08:04:18.464Z,14.68
2023-02-03T08:06:45.097Z,14.07
2023-02-03T08:09:11.602Z,13.85
2023-02-03T08:11:38.640Z,15.05
2023-02-03T08:14:05.610Z,12.90
2023-02-03T08:16:32.250Z,16.23
2023-02-03T08:18:58.853Z,17.08
2023-02-03T08:21:25.501Z,15.23
2023-02-03T08:23:51.922Z,14.02
2023-02-03T08:26:18.422Z,15.07
2023-02-03T08:28:44.951Z,13.90
2023-02-03T08:31:11.657Z,13.75
2023-02-03T08:33:38.682Z,15.27
2023-02-03T08:36:05.431Z,15.15
2023-02-03T08:38:32.072Z,14.50
2023-02-03T08:40:58.601Z,15.18
2023-02-03T08:43:25.072Z,14.20
2023-02-03T08:45:51.699Z,14.10
2023-02-03T08:48:18.353Z,15.52
2023-02-03T08:50:44.848Z,28.92
2023-02-03T08:53:11.377Z,29.50
2023-02-03T08:55:38.181Z,20.20
2023-02-03T08:58:08.232Z,17.92
2023-02-03T09:00:34.982Z,16.40
2023-02-03T09:03:01.496Z,13.98
2023-02-03T09:05:28.046Z,20.30
2023-02-03T09:07:54.513Z,15.55
2023-02-03T09:10:20.993Z,17.80
2023-02-03T09:12:47.431Z,15.55
2023-02-03T09:15:13.825Z,15.02
2023-02-03T09:17:40.330Z,14.88
2023-02-03T09:20:06.955Z,13.70
2023-02-03T09:22:33.479Z,13.18
2023-02-03T09:24:59.924Z,13.35
2023-02-03T09:27:26.582Z,16.17
2023-02-03T09:29:53.098Z,13.73
2023-02-03T09:32:19.549Z,14.68
2023-02-03T09:34:46.077Z,13.57
2023-02-03T09:37:12.646Z,14.77
2023-02-03T09:39:39.896Z,14.73
2023-02-03T09:42:06.598Z,15.63
2023-02-03T09:44:33.323Z,13.35
2023-02-03T09:46:59.701Z,16.23
2023-02-03T09:49:26.289Z,14.77
2023-02-03T09:51:52.696Z,12.80
2023-02-03T09:54:19.657Z,15.48
2023-02-03T09:56:46.687Z,14.93
2023-02-03T09:59:13.319Z,14.20
2023-02-03T10:01:40.046Z,12.32
2023-02-03T10:04:06.564Z,13.90
2023-02-03T10:06:33.254Z,15.35
2023-02-03T10:08:59.759Z,12.43
2023-02-03T10:11:26.213Z,15.15
2023-02-03T10:13:52.727Z,13.68
2023-02-03T10:16:19.895Z,13.13
2023-02-03T10:18:46.511Z,12.27
2023-02-03T10:21:12.922Z,12.52
2023-02-03T10:23:39.281Z,11.93
2023-02-03T10:26:06.018Z,15.95
2023-02-03T10:28:32.846Z,16.52
2023-02-03T10:30:59.534Z,13.23
2023-02-03T10:33:26.192Z,14.48
2023-02-03T10:35:52.648Z,13.45
2023-02-03T10:38:19.701Z,11.38
2023-02-03T10:40:46.139Z,11.50
2023-02-03T10:43:12.691Z,12.23
2023-02-03T10:45:39.301Z,11.93
2023-02-03T10:48:05.984Z,10.85
2023-02-03T10:50:32.411Z,12.93
2023-02-03T10:52:58.890Z,11.75
2023-02-03T10:55:25.363Z,12.05
2023-02-03T10:57:51.851Z,12.10
2023-02-03T11:00:20.045Z,11.23
2023-02-03T11:02:47.799Z,11.13
2023-02-03T11:05:14.551Z,13.43
2023-02-03T11:07:41.055Z,10.20
2023-02-03T11:10:07.676Z,10.63
2023-02-03T11:12:34.416Z,11.27
2023-02-03T11:15:01.385Z,12.15
2023-02-03T11:17:28.201Z,10.68
2023-02-03T11:19:55.051Z,11.40
2023-02-03T11:22:22.023Z,11.23
2023-02-03T11:24:48.641Z,10.13
2023-02-03T11:27:15.533Z,9.50
2023-02-03T11:29:42.289Z,11.30
2023-02-03T11:32:08.914Z,13.57
2023-02-03T11:34:35.318Z,10.35
2023-02-03T11:37:01.873Z,10.00
2023-02-03T11:39:28.448Z,9.43
2023-02-03T11:41:54.875Z,9.43
2023-02-03T11:44:21.543Z,12.60
2023-02-03T11:46:50.909Z,10.73
2023-02-03T11:49:17.391Z,10.07
2023-02-03T11:51:43.779Z,9.98
2023-02-03T11:54:10.681Z,11.10
2023-02-03T11:56:37.089Z,12.18
2023-02-03T11:59:03.596Z,12.90
2023-02-03T12:01:30.073Z,15.00
2023-02-03T12:03:56.600Z,12.70
2023-02-03T12:06:22.995Z,14.68
2023-02-03T12:08:49.651Z,16.20
2023-02-03T12:11:17.552Z,15.65
2023-02-03T12:13:44.057Z,14.20
2023-02-03T12:16:10.647Z,15.98
2023-02-03T12:18:37.452Z,14.48
2023-02-03T12:21:03.929Z,18.40
2023-02-03T12:23:30.333Z,19.42
2023-02-03T12:25:57.017Z,16.17
2023-02-03T12:28:32.920Z,17.13
2023-02-03T12:30:59.566Z,16.10
2023-02-03T12:33:26.120Z,19.00
2023-02-03T12:35:52.821Z,17.33
2023-02-03T12:38:19.273Z,19.50
2023-02-03T12:40:47.249Z,18.67
2023-02-03T12:43:15.321Z,20.83
2023-02-03T12:45:41.789Z,18.58
2023-02-03T12:48:08.640Z,19.30
2023-02-03T12:50:35.097Z,22.33
2023-02-03T12:53:01.625Z,20.67
2023-02-03T12:55:28.090Z,22.25
2023-02-03T12:57:55.048Z,25.25
2023-02-03T13:00:21.566Z,27.35
2023-02-03T13:02:48.207Z,27.48
2023-02-03T13:05:14.707Z,32.22
2023-02-03T13:07:41.344Z,31.85
2023-02-03T13:10:07.806Z,35.25
2023-02-03T13:12:34.343Z,31.17
2023-02-03T13:15:00.875Z,32.60
2023-02-03T13:17:27.374Z,38.22
2023-02-03T13:19:53.883Z,35.65
2023-02-03T13:22:20.483Z,29.77
2023-02-03T13:24:47.114Z,35.53
2023-02-03T13:27:14.321Z,33.65
2023-02-03T13:29:40.643Z,36.35
2023-02-03T13:32:07.529Z,37.53
2023-02-03T13:34:36.670Z,36.33
2023-02-03T13:37:03.642Z,39.53
2023-02-03T13:39:30.078Z,38.78
2023-02-03T13:41:56.664Z,38.35
2023-02-03T13:44:23.281Z,42.78
2023-02-03T13:46:49.598Z,35.80
2023-02-03T13:49:16.009Z,34.70
2023-02-03T13:51:42.482Z,37.65
2023-02-03T13:54:08.904Z,39.70
2023-02-03T13:56:35.224Z,37.53
2023-02-03T13:59:01.800Z,37.67
2023-02-03T14:01:28.161Z,38.63
2023-02-03T14:03:54.695Z,34.95
2023-02-03T14:06:21.442Z,39.97
2023-02-03T14:08:47.957Z,36.75
2023-02-03T14:11:14.397Z,34.63
2023-02-03T14:13:41.249Z,35.95
2023-02-03T14:16:07.939Z,35.53
2023-02-03T14:18:34.400Z,35.03
2023-02-03T14:21:01.139Z,35.65
2023-02-03T14:23:28.061Z,37.50
2023-02-03T14:25:54.638Z,32.10
2023-02-03T14:28:21.170Z,35.45
2023-02-03T14:30:48.045Z,32.53
2023-02-03T14:33:14.655Z,34.83
2023-02-03T14:35:41.028Z,37.30
2023-02-03T14:38:07.913Z,31.23
2023-02-03T14:40:34.239Z,32.35
2023-02-03T14:43:09.724Z,36.05
2023-02-03T14:45:36.743Z,30.63
2023-02-03T14:48:03.107Z,30.58
2023-02-03T14:50:29.421Z,28.92
2023-02-03T14:52:56.135Z,30.67
2023-02-03T14:55:23.117Z,32.42
2023-02-03T14:57:49.696Z,29.60
2023-02-03T15:00:16.559Z,27.70
2023-02-03T15:02:42.982Z,25.13
2023-02-03T15:05:09.545Z,32.28
2023-02-03T15:07:36.013Z,31.20
2023-02-03T15:10:02.465Z,29.83
2023-02-03T15:12:28.833Z,29.70
2023-02-03T15:14:55.627Z,26.13
2023-02-03T15:17:22.000Z,25.33
2023-02-03T15:19:48.384Z,27.65
2023-02-03T15:22:14.869Z,25.08
2023-02-03T15:24:41.637Z,25.70
2023-02-03T15:27:08.036Z,25.17
2023-02-03T15:29:34.378Z,23.98
2023-02-03T15:32:00.784Z,25.42
2023-02-03T15:34:27.931Z,25.95
2023-02-03T15:36:54.259Z,24.60
2023-02-03T15:39:21.051Z,24.00
2023-02-03T15:41:47.443Z,23.10
2023-02-03T15:44:14.122Z,24.52
2023-02-03T15:46:40.856Z,23.02
2023-02-03T15:49:07.564Z,23.35
2023-02-03T15:51:33.920Z,23.20
2023-02-03T15:54:00.352Z,22.52
2023-02-03T15:56:26.656Z,23.17
2023-02-03T15:58:52.995Z,19.63
2023-02-03T16:01:19.375Z,20.92
2023-02-03T16:03:46.060Z,26.55
2023-02-03T16:06:12.465Z,24.70
2023-02-03T16:08:38.827Z,21.33
2023-02-03T16:11:05.363Z,20.45
2023-02-03T16:13:31.706Z,23.10
2023-02-03T16:15:58.207Z,21.25
2023-02-03T16:18:24.652Z,22.08
2023-02-03T16:20:51.349Z,22.15
2023-02-03T16:23:18.029Z,20.20
2023-02-03T16:25:44.693Z,20.05
2023-02-03T16:28:11.108Z,21.20
2023-02-03T16:30:37.505Z,20.42
2023-02-03T16:33:04.204Z,17.15
2023-02-03T16:35:31.153Z,20.23
2023-02-03T16:37:57.741Z,17.67
2023-02-03T16:40:24.385Z,19.13
2023-02-03T16:42:51.000Z,18.98
2023-02-03T16:45:17.651Z,21.80
2023-02-03T16:47:44.273Z,18.35
2023-02-03T16:50:10.688Z,19.25
2023-02-03T16:52:37.101Z,17.00
2023-02-03T16:55:03.538Z,20.38
2023-02-03T16:57:29.964Z,17.88
2023-02-03T16:59:56.303Z,14.30
2023-02-03T17:02:22.738Z,17.65
2023-02-03T17:04:49.102Z,17.48
2023-02-03T17:07:15.431Z,14.68
2023-02-03T17:09:41.968Z,15.80
2023-02-03T17:12:08.293Z,21.15
2023-02-03T17:14:34.608Z,17.15
2023-02-03T17:17:01.092Z,14.80
2023-02-03T17:19:27.504Z,16.15
2023-02-03T17:21:53.922Z,15.77
2023-02-03T17:24:20.408Z,16.90
2023-02-03T17:26:47.186Z,14.30
2023-02-03T17:29:13.515Z,16.65
2023-02-03T17:31:39.964Z,18.08
2023-02-03T17:34:06.405Z,13.48
2023-02-03T17:36:32.829Z,15.45
2023-02-03T17:55:23.311Z,14.13
2023-02-03T17:57:49.633Z,12.85
2023-02-03T18:00:16.900Z,12.38
2023-02-03T18:02:43.380Z,14.32
2023-02-03T18:05:09.809Z,12.73
2023-02-03T18:07:36.154Z,15.85
2023-02-03T18:10:02.568Z,13.10
2023-02-03T18:12:28.938Z,14.50
2023-02-03T18:14:57.103Z,15.65
2023-02-03T18:17:24.130Z,16.45
2023-02-03T18:19:55.697Z,15.13
2023-02-03T18:22:23.050Z,15.10
2023-02-03T18:24:49.413Z,14.10
2023-02-03T18:27:15.883Z,12.63
2023-02-03T18:29:42.180Z,15.00
2023-02-03T18:32:08.777Z,12.65
2023-02-03T18:34:35.186Z,12.38
2023-02-03T18:37:01.556Z,14.68
2023-02-03T18:39:28.150Z,13.50
2023-02-03T18:41:54.509Z,12.10
2023-02-03T18:44:21.369Z,14.27
2023-02-03T18:46:47.780Z,13.05
2023-02-03T18:49:14.114Z,14.70
2023-02-03T18:51:40.617Z,9.60
2023-02-03T18:54:07.516Z,11.70
2023-02-03T18:56:33.808Z,11.38
2023-02-03T18:59:00.241Z,15.35
2023-02-03T19:01:26.826Z,14.10
2023-02-03T19:03:53.353Z,11.10
2023-02-03T19:06:19.839Z,11.52
2023-02-03T19:08:46.178Z,10.10
2023-02-03T19:11:12.563Z,11.98
2023-02-03T19:13:38.943Z,13.88
2023-02-03T19:16:05.376Z,11.63
2023-02-03T19:18:32.304Z,12.45
2023-02-03T19:20:58.916Z,13.88
2023-02-03T19:23:26.070Z,12.40
2023-02-03T19:25:52.460Z,11.63
2023-02-03T19:28:29.965Z,12.95
2023-02-03T19:31:00.116Z,9.95
2023-02-03T19:33:29.342Z,11.57
2023-02-03T19:35:55.703Z,14.00
2023-02-03T19:38:22.033Z,9.35
2023-02-03T19:40:49.015Z,11.38
2023-02-03T19:43:15.879Z,9.25
2023-02-03T19:45:42.642Z,10.48
2023-02-03T19:48:09.021Z,12.40
2023-02-03T19:50:35.368Z,7.57
2023-02-03T19:53:01.939Z,14.45
2023-02-03T19:55:28.316Z,11.43
2023-02-03T19:57:55.226Z,10.88
2023-02-03T20:00:21.573Z,12.93
2023-02-03T20:02:47.847Z,10.75
2023-02-03T20:05:14.257Z,12.45
2023-02-03T20:07:40.865Z,10.88
2023-02-03T20:10:07.159Z,12.05
2023-02-03T20:12:33.466Z,13.82
2023-02-03T20:14:59.858Z,10.48
2023-02-03T20:17:26.158Z,8.80
2023-02-03T20:19:52.661Z,11.57
2023-02-03T20:22:19.534Z,8.43
2023-02-03T20:24:46.364Z,9.02
2023-02-03T20:27:12.857Z,9.05
2023-02-03T20:29:40.140Z,9.15
2023-02-03T20:32:06.643Z,12.07
2023-02-03T20:34:33.075Z,11.02
2023-02-03T20:36:59.527Z,12.45
2023-02-03T20:39:26.026Z,10.38
2023-02-03T20:41:52.392Z,9.05
2023-02-03T20:44:19.322Z,11.57
2023-02-03T20:46:46.093Z,8.27
2023-02-03T20:49:12.610Z,14.32
2023-02-03T20:51:39.211Z,7.60
2023-02-03T20:54:05.599Z,9.85
2023-02-03T20:56:31.984Z,8.48
2023-02-03T20:58:58.468Z,9.07
2023-02-03T21:01:25.142Z,8.20
2023-02-03T21:03:51.672Z,10.18
2023-02-03T21:06:18.061Z,8.63
2023-02-03T21:08:44.466Z,7.43
2023-02-03T21:11:11.080Z,6.38
2023-02-03T21:13:37.901Z,9.95
2023-02-03T21:16:04.525Z,7.32
2023-02-03T21:18:31.054Z,9.20
2023-02-03T21:20:57.565Z,10.35
2023-02-03T21:23:24.077Z,9.40
2023-02-03T21:25:50.392Z,9.82
2023-02-03T21:28:17.197Z,7.00
2023-02-03T21:30:43.650Z,8.02
2023-02-03T21:33:10.091Z,6.45
2023-02-03T21:35:36.493Z,6.93
2023-02-03T21:38:03.423Z,8.02
2023-02-03T21:40:30.050Z,9.57
2023-02-03T21:42:56.618Z,9.82
2023-02-03T21:45:23.202Z,8.25
2023-02-03T21:47:49.520Z,7.72
2023-02-03T21:50:15.880Z,6.40
2023-02-03T21:52:42.390Z,6.13
2023-02-03T21:55:09.284Z,8.18
2023-02-03T21:57:35.946Z,6.85
2023-02-03T22:00:02.290Z,7.50
2023-02-03T22:02:28.771Z,7.10
2023-02-03T22:04:56.137Z,6.90
2023-02-03T22:07:22.589Z,8.40
2023-02-03T22:09:49.163Z,7.63
2023-02-03T22:12:15.441Z,5.68
2023-02-03T22:14:42.136Z,4.93
2023-02-03T22:17:08.665Z,6.00
2023-02-03T22:19:35.098Z,4.75
2023-02-03T22:22:01.769Z,5.50
2023-02-03T22:24:28.368Z,6.05
2023-02-03T22:26:54.681Z,6.65
2023-02-03T22:29:21.290Z,6.72
2023-02-03T22:31:47.773Z,4.72
2023-02-03T22:34:14.176Z,5.43
2023-02-03T22:36:41.164Z,7.13
2023-02-03T22:39:07.444Z,6.25
2023-02-03T22:41:33.800Z,3.95
2023-02-03T22:44:00.176Z,4.70
2023-02-03T22:46:27.000Z,4.53
2023-02-03T22:48:53.530Z,6.50
2023-02-03T22:51:20.035Z,4.65
2023-02-03T22:53:46.872Z,3.95
2023-02-03T22:56:13.293Z,5.10
2023-02-03T22:58:39.762Z,4.88
2023-02-03T23:01:06.209Z,4.05
2023-02-03T23:03:33.081Z,3.67
2023-02-03T23:05:59.601Z,5.97
2023-02-03T23:08:26.155Z,5.85
2023-02-03T23:10:53.099Z,3.78
2023-02-03T23:13:19.474Z,4.55
2023-02-03T23:15:45.988Z,4.00
2023-02-03T23:18:13.554Z,3.67
2023-02-03T23:20:40.029Z,4.32
2023-02-03T23:23:06.973Z,3.08
2023-02-03T23:25:34.166Z,3.50
2023-02-03T23:28:00.610Z,2.95
2023-02-03T23:30:27.091Z,2.58
2023-02-03T23:32:53.492Z,3.75
2023-02-03T23:35:19.828Z,3.63
2023-02-03T23:37:46.334Z,5.93
2023-02-03T23:40:12.972Z,3.35
2023-02-03T23:42:39.348Z,3.90
2023-02-03T23:45:05.813Z,3.30
2023-02-03T23:47:32.142Z,3.15
2023-02-03T23:49:58.505Z,3.15
2023-02-03T23:52:24.889Z,2.53
2023-02-03T23:54:51.623Z,4.57
2023-02-03T23:57:17.951Z,4.13
2023-02-03T23:59:44.288Z,3.65
